PWSweather.com
Personal Weather Stations
Station Observations
KOHCLEVE171
Cleveland, OH

Cleveland, OH

Lat: 41.48646164, Lon: -81.46408081

Elevation: 1059

Station Type:

High Low Average
Temperature 36.5°F2.5°C 25.2°F-3.8°C 28.4°F-2.0°C
Dew Point 34.7°F1.5°C 19.4°F-7.0°C 24.3°F-4.3°C
Winds 13.9 mph 22.4 kmh 0.9 mph 1.4 kmh 4.0 mph E6.4 kmh E
Wind Gusts 17.7 mph28.5 kmh 1.6 mph2.6 kmh 6.0 mph9.7 kmh
Humidity 96% 78% 85%
Pressure 29.93 in1013.5 mb 29.67 in1004.7 mb -
Precipitation 0.17 in4.3 mm - -
Hour Temp Dew Point Humidity Winds Wind Gusts Pressure Precip Precip Rate Daily Precip Total
12:04 AM 38.1°F3.4°C 36.5°F2.5°C 94% 2.9 mph N4.7 kmh N 4.7 mph7.6 kmh 29.69 in1005.4 mb 0.03 in0.8 mm 0.45 in11.4 mm 0.96 in24.4 mm
12:09 AM 37.9°F3.3°C 36.3°F2.4°C 94% 3.4 mph N5.5 kmh N 5.1 mph8.2 kmh 29.69 in1005.4 mb 0.04 in1.0 mm 0.12 in3.0 mm 0.96 in24.4 mm
12:14 AM 37.8°F3.2°C 36.1°F2.3°C 94% 2.9 mph N4.7 kmh N 4.7 mph7.6 kmh 29.69 in1005.4 mb 0.01 in0.3 mm 0.00 in0.0 mm 0.97 in24.6 mm
12:19 AM 37.8°F3.2°C 36.1°F2.3°C 94% 2.2 mph N3.5 kmh N 4.3 mph6.9 kmh 29.69 in1005.4 mb 0.02 in0.5 mm 0.12 in3.0 mm 0.98 in24.9 mm
12:24 AM 37.6°F3.1°C 36.0°F2.2°C 94% 2.9 mph N4.7 kmh N 7.2 mph11.6 kmh 29.70 in1005.8 mb 0.02 in0.5 mm 0.00 in0.0 mm 0.98 in24.9 mm
12:29 AM 37.4°F3.0°C 35.8°F2.1°C 94% 5.4 mph NNW8.7 kmh NNW 9.4 mph15.1 kmh 29.70 in1005.8 mb 0.03 in0.8 mm 0.12 in3.0 mm 0.99 in25.1 mm
12:34 AM 37.2°F2.9°C 35.6°F2.0°C 94% 4.5 mph NNW7.2 kmh NNW 11.6 mph18.7 kmh 29.70 in1005.8 mb 0.04 in1.0 mm 0.12 in3.0 mm 1.00 in25.4 mm
12:39 AM 37.0°F2.8°C 35.4°F1.9°C 94% 4.5 mph NW7.2 kmh NW 15.2 mph24.5 kmh 29.69 in1005.4 mb 0.04 in1.0 mm 0.00 in0.0 mm 1.00 in25.4 mm
12:44 AM 36.9°F2.7°C 35.2°F1.8°C 94% 3.8 mph N6.1 kmh N 8.7 mph14.0 kmh 29.70 in1005.8 mb 0.05 in1.3 mm 0.12 in3.0 mm 1.01 in25.7 mm
12:49 AM 36.9°F2.7°C 35.2°F1.8°C 94% 2.2 mph NW3.5 kmh NW 7.8 mph12.6 kmh 29.70 in1005.8 mb 0.05 in1.3 mm 0.00 in0.0 mm 1.01 in25.7 mm
12:54 AM 36.7°F2.6°C 34.9°F1.6°C 93% 5.4 mph N8.7 kmh N 10.5 mph16.9 kmh 29.70 in1005.8 mb 0.06 in1.5 mm 0.12 in3.0 mm 1.02 in25.9 mm
01:04 AM 36.5°F2.5°C 34.7°F1.5°C 93% 4.0 mph NNW6.4 kmh NNW 8.9 mph14.3 kmh 29.70 in1005.8 mb 0.07 in1.8 mm 0.01 in0.3 mm 0.10 in2.5 mm
01:09 AM 36.3°F2.4°C 34.5°F1.4°C 93% 2.5 mph NW4.0 kmh NW 4.3 mph6.9 kmh 29.70 in1005.8 mb 0.01 in0.3 mm 0.00 in0.0 mm 0.01 in0.3 mm
01:14 AM 36.3°F2.4°C 34.5°F1.4°C 93% 2.5 mph N4.0 kmh N 4.7 mph7.6 kmh 29.70 in1005.8 mb 0.02 in0.5 mm 0.12 in3.0 mm 0.02 in0.5 mm
01:19 AM 36.3°F2.4°C 34.5°F1.4°C 93% 2.2 mph N3.5 kmh N 4.7 mph7.6 kmh 29.70 in1005.8 mb 0.02 in0.5 mm 0.00 in0.0 mm 0.02 in0.5 mm
01:24 AM 36.3°F2.4°C 34.5°F1.4°C 93% 1.6 mph N2.6 kmh N 2.7 mph4.3 kmh 29.70 in1005.8 mb 0.03 in0.8 mm 0.12 in3.0 mm 0.03 in0.8 mm
01:29 AM 36.3°F2.4°C 34.5°F1.4°C 93% 1.8 mph N2.9 kmh N 3.6 mph5.8 kmh 29.70 in1005.8 mb 0.03 in0.8 mm 0.00 in0.0 mm 0.03 in0.8 mm
01:34 AM 36.1°F2.3°C 34.3°F1.3°C 93% 3.6 mph NW5.8 kmh NW 7.6 mph12.2 kmh 29.70 in1005.8 mb 0.04 in1.0 mm 0.12 in3.0 mm 0.04 in1.0 mm
01:39 AM 35.6°F2.0°C 33.8°F1.0°C 93% 6.0 mph NNW9.7 kmh NNW 11.0 mph17.7 kmh 29.70 in1005.8 mb 0.04 in1.0 mm 0.00 in0.0 mm 0.04 in1.0 mm
01:44 AM 35.2°F1.8°C 33.4°F0.8°C 93% 4.3 mph NNW6.9 kmh NNW 8.5 mph13.7 kmh 29.70 in1005.8 mb 0.05 in1.3 mm 0.12 in3.0 mm 0.05 in1.3 mm
01:49 AM 34.9°F1.6°C 33.1°F0.6°C 93% 3.4 mph NW5.5 kmh NW 12.3 mph19.8 kmh 29.70 in1005.8 mb 0.06 in1.5 mm 0.12 in3.0 mm 0.06 in1.5 mm
01:54 AM 34.7°F1.5°C 32.9°F0.5°C 93% 2.7 mph NW4.3 kmh NW 5.8 mph9.3 kmh 29.70 in1005.8 mb 0.06 in1.5 mm 0.00 in0.0 mm 0.06 in1.5 mm
01:59 AM 34.3°F1.3°C 32.5°F0.3°C 93% 4.5 mph NNW7.2 kmh NNW 8.1 mph13.0 kmh 29.69 in1005.4 mb 0.07 in1.8 mm 0.12 in3.0 mm 0.07 in1.8 mm
02:04 AM 34.3°F1.3°C 32.5°F0.3°C 93% 5.8 mph NNW9.3 kmh NNW 8.9 mph14.3 kmh 29.69 in1005.4 mb 0.07 in1.8 mm 0.00 in0.0 mm 0.07 in1.8 mm
02:09 AM 34.0°F1.1°C 32.2°F0.1°C 93% 2.5 mph NW4.0 kmh NW 6.9 mph11.1 kmh 29.70 in1005.8 mb 0.07 in1.8 mm 0.00 in0.0 mm 0.08 in2.0 mm
02:14 AM 34.0°F1.1°C 32.2°F0.1°C 93% 2.7 mph NW4.3 kmh NW 5.4 mph8.7 kmh 29.70 in1005.8 mb 0.07 in1.8 mm 0.00 in0.0 mm 0.08 in2.0 mm
02:19 AM 33.6°F0.9°C 31.8°F-0.1°C 93% 4.5 mph N7.2 kmh N 10.7 mph17.2 kmh 29.70 in1005.8 mb 0.01 in0.3 mm 0.00 in0.0 mm 0.09 in2.3 mm
02:24 AM 33.4°F0.8°C 31.6°F-0.2°C 93% 4.5 mph NNW7.2 kmh NNW 6.5 mph10.5 kmh 29.70 in1005.8 mb 0.01 in0.3 mm 0.00 in0.0 mm 0.09 in2.3 mm
02:29 AM 33.3°F0.7°C 31.5°F-0.3°C 93% 2.5 mph NNW4.0 kmh NNW 5.1 mph8.2 kmh 29.70 in1005.8 mb 0.02 in0.5 mm 0.12 in3.0 mm 0.10 in2.5 mm
02:34 AM 33.4°F0.8°C 31.6°F-0.2°C 93% 2.9 mph NW4.7 kmh NW 6.7 mph10.8 kmh 29.70 in1005.8 mb 0.02 in0.5 mm 0.00 in0.0 mm 0.10 in2.5 mm
02:39 AM 33.1°F0.6°C 30.7°F-0.7°C 91% 2.5 mph NE4.0 kmh NE 4.0 mph6.4 kmh 29.70 in1005.8 mb 0.03 in0.8 mm 0.12 in3.0 mm 0.11 in2.8 mm
02:44 AM 32.5°F0.3°C 30.2°F-1.0°C 91% 5.4 mph N8.7 kmh N 7.4 mph11.9 kmh 29.70 in1005.8 mb 0.04 in1.0 mm 0.12 in3.0 mm 0.12 in3.0 mm
02:49 AM 32.4°F0.2°C 30.0°F-1.1°C 91% 2.2 mph N3.5 kmh N 4.7 mph7.6 kmh 29.70 in1005.8 mb 0.05 in1.3 mm 0.12 in3.0 mm 0.13 in3.3 mm
02:54 AM 32.2°F0.1°C 29.8°F-1.2°C 91% 2.7 mph N4.3 kmh N 5.1 mph8.2 kmh 29.69 in1005.4 mb 0.06 in1.5 mm 0.12 in3.0 mm 0.14 in3.6 mm
02:59 AM 32.2°F0.1°C 30.4°F-0.9°C 93% 2.0 mph WNW3.2 kmh WNW 4.7 mph7.6 kmh 29.69 in1005.4 mb 0.06 in1.5 mm 0.00 in0.0 mm 0.14 in3.6 mm
03:04 AM 31.8°F-0.1°C 29.5°F-1.4°C 91% 0.9 mph SW1.4 kmh SW 1.6 mph2.6 kmh 29.69 in1005.4 mb 0.08 in2.0 mm 0.02 in0.5 mm 0.15 in3.8 mm
03:09 AM 31.8°F-0.1°C 29.5°F-1.4°C 91% 1.8 mph W2.9 kmh W 6.5 mph10.5 kmh 29.69 in1005.4 mb 0.07 in1.8 mm 0.00 in0.0 mm 0.15 in3.8 mm
03:14 AM 31.8°F-0.1°C 30.0°F-1.1°C 93% 2.9 mph NNE4.7 kmh NNE 5.8 mph9.3 kmh 29.69 in1005.4 mb 0.07 in1.8 mm 0.00 in0.0 mm 0.15 in3.8 mm
03:19 AM 31.8°F-0.1°C 30.0°F-1.1°C 93% 2.5 mph NNE4.0 kmh NNE 4.3 mph6.9 kmh 29.69 in1005.4 mb 0.01 in0.3 mm 0.00 in0.0 mm 0.16 in4.1 mm
03:24 AM 31.6°F-0.2°C 29.8°F-1.2°C 93% 2.9 mph NNW4.7 kmh NNW 8.9 mph14.3 kmh 29.69 in1005.4 mb 0.01 in0.3 mm 0.00 in0.0 mm 0.16 in4.1 mm
03:29 AM 31.5°F-0.3°C 29.7°F-1.3°C 93% 2.2 mph N3.5 kmh N 3.4 mph5.5 kmh 29.69 in1005.4 mb 0.01 in0.3 mm 0.00 in0.0 mm 0.16 in4.1 mm
03:34 AM 31.5°F-0.3°C 29.7°F-1.3°C 93% 3.1 mph N5.0 kmh N 6.9 mph11.1 kmh 29.69 in1005.4 mb 0.02 in0.5 mm 0.12 in3.0 mm 0.17 in4.3 mm
03:39 AM 31.5°F-0.3°C 29.7°F-1.3°C 93% 2.5 mph NNE4.0 kmh NNE 4.0 mph6.4 kmh 29.68 in1005.1 mb 0.02 in0.5 mm 0.00 in0.0 mm 0.17 in4.3 mm
03:44 AM 31.3°F-0.4°C 29.5°F-1.4°C 93% 3.1 mph NE5.0 kmh NE 4.7 mph7.6 kmh 29.68 in1005.1 mb 0.02 in0.5 mm 0.00 in0.0 mm 0.17 in4.3 mm
03:49 AM 31.3°F-0.4°C 29.5°F-1.4°C 93% 2.7 mph NNW4.3 kmh NNW 6.7 mph10.8 kmh 29.69 in1005.4 mb 0.02 in0.5 mm 0.00 in0.0 mm 0.17 in4.3 mm
03:54 AM 31.3°F-0.4°C 29.5°F-1.4°C 93% 2.5 mph N4.0 kmh N 3.8 mph6.1 kmh 29.68 in1005.1 mb 0.02 in0.5 mm 0.00 in0.0 mm 0.17 in4.3 mm
03:59 AM 31.5°F-0.3°C 29.7°F-1.3°C 93% 2.0 mph N3.2 kmh N 3.6 mph5.8 kmh 29.68 in1005.1 mb 0.02 in0.5 mm 0.00 in0.0 mm 0.17 in4.3 mm
04:04 AM 31.3°F-0.4°C 29.5°F-1.4°C 93% 1.6 mph NW2.6 kmh NW 3.4 mph5.5 kmh 29.69 in1005.4 mb 0.03 in0.8 mm 0.01 in0.3 mm 0.17 in4.3 mm
04:09 AM 31.1°F-0.5°C 29.3°F-1.5°C 93% 3.6 mph NNE5.8 kmh NNE 7.2 mph11.6 kmh 29.69 in1005.4 mb 0.02 in0.5 mm 0.00 in0.0 mm 0.17 in4.3 mm
04:14 AM 30.7°F-0.7°C 28.9°F-1.7°C 93% 6.0 mph N9.7 kmh N 11.2 mph18.0 kmh 29.68 in1005.1 mb 0.02 in0.5 mm 0.00 in0.0 mm 0.17 in4.3 mm
04:19 AM 30.6°F-0.8°C 29.1°F-1.6°C 94% 3.6 mph NNE5.8 kmh NNE 5.1 mph8.2 kmh 29.69 in1005.4 mb 0.02 in0.5 mm 0.00 in0.0 mm 0.17 in4.3 mm
04:24 AM 30.6°F-0.8°C 29.3°F-1.5°C 95% 2.5 mph NE4.0 kmh NE 6.7 mph10.8 kmh 29.68 in1005.1 mb 0.01 in0.3 mm 0.00 in0.0 mm 0.17 in4.3 mm
04:29 AM 30.7°F-0.7°C 29.5°F-1.4°C 95% 4.3 mph NNE6.9 kmh NNE 6.7 mph10.8 kmh 29.69 in1005.4 mb 0.01 in0.3 mm 0.00 in0.0 mm 0.17 in4.3 mm
04:34 AM 30.7°F-0.7°C 29.5°F-1.4°C 95% 2.7 mph NE4.3 kmh NE 6.9 mph11.1 kmh 29.68 in1005.1 mb 0.00 in0.0 mm 0.00 in0.0 mm 0.17 in4.3 mm
04:39 AM 30.7°F-0.7°C 29.5°F-1.4°C 95% 2.9 mph NE4.7 kmh NE 5.8 mph9.3 kmh 29.68 in1005.1 mb 0.00 in0.0 mm 0.00 in0.0 mm 0.17 in4.3 mm
04:44 AM 30.7°F-0.7°C 29.3°F-1.5°C 94% 2.5 mph NE4.0 kmh NE 3.8 mph6.1 kmh 29.68 in1005.1 mb 0.00 in0.0 mm 0.00 in0.0 mm 0.17 in4.3 mm
04:49 AM 30.6°F-0.8°C 29.1°F-1.6°C 94% 3.4 mph NE5.5 kmh NE 5.8 mph9.3 kmh 29.67 in1004.7 mb 0.00 in0.0 mm 0.00 in0.0 mm 0.17 in4.3 mm
04:54 AM 30.6°F-0.8°C 29.1°F-1.6°C 94% 2.5 mph NE4.0 kmh NE 5.1 mph8.2 kmh 29.67 in1004.7 mb 0.00 in0.0 mm 0.00 in0.0 mm 0.17 in4.3 mm
04:59 AM 30.6°F-0.8°C 29.1°F-1.6°C 94% 3.4 mph NE5.5 kmh NE 6.0 mph9.7 kmh 29.67 in1004.7 mb 0.00 in0.0 mm 0.00 in0.0 mm 0.17 in4.3 mm
05:04 AM 30.6°F-0.8°C 29.1°F-1.6°C 94% 3.4 mph NE5.5 kmh NE 6.0 mph9.7 kmh 29.67 in1004.7 mb 0.00 in0.0 mm 0.00 in0.0 mm 0.17 in4.3 mm
05:09 AM 30.4°F-0.9°C 28.9°F-1.7°C 94% 5.4 mph NE8.7 kmh NE 6.3 mph10.1 kmh 29.67 in1004.7 mb 0.00 in0.0 mm 0.00 in0.0 mm 0.17 in4.3 mm
05:14 AM 30.4°F-0.9°C 28.9°F-1.7°C 94% 5.1 mph NE8.2 kmh NE 6.5 mph10.5 kmh 29.68 in1005.1 mb 0.00 in0.0 mm 0.00 in0.0 mm 0.17 in4.3 mm
05:19 AM 30.4°F-0.9°C 28.9°F-1.7°C 94% 4.7 mph NE7.6 kmh NE 7.2 mph11.6 kmh 29.67 in1004.7 mb 0.00 in0.0 mm 0.00 in0.0 mm 0.17 in4.3 mm
05:24 AM 30.4°F-0.9°C 28.9°F-1.7°C 94% 4.9 mph NE7.9 kmh NE 5.8 mph9.3 kmh 29.68 in1005.1 mb 0.00 in0.0 mm 0.00 in0.0 mm 0.17 in4.3 mm
05:29 AM 30.0°F-1.1°C 28.6°F-1.9°C 94% 5.6 mph NE9.0 kmh NE 7.2 mph11.6 kmh 29.67 in1004.7 mb 0.00 in0.0 mm 0.00 in0.0 mm 0.17 in4.3 mm
05:34 AM 30.2°F-1.0°C 28.9°F-1.7°C 95% 5.4 mph NE8.7 kmh NE 6.3 mph10.1 kmh 29.67 in1004.7 mb 0.00 in0.0 mm 0.00 in0.0 mm 0.17 in4.3 mm
05:39 AM 30.0°F-1.1°C 28.8°F-1.8°C 95% 5.1 mph NE8.2 kmh NE 5.6 mph9.0 kmh 29.68 in1005.1 mb 0.00 in0.0 mm 0.00 in0.0 mm 0.17 in4.3 mm
05:44 AM 29.7°F-1.3°C 28.4°F-2.0°C 95% 7.4 mph NE11.9 kmh NE 14.1 mph22.7 kmh 29.69 in1005.4 mb 0.00 in0.0 mm 0.00 in0.0 mm 0.17 in4.3 mm
05:49 AM 29.5°F-1.4°C 28.4°F-2.0°C 96% 8.5 mph NE13.7 kmh NE 15.4 mph24.8 kmh 29.69 in1005.4 mb 0.00 in0.0 mm 0.00 in0.0 mm 0.17 in4.3 mm
05:54 AM 29.1°F-1.6°C 27.9°F-2.3°C 95% 5.1 mph ENE8.2 kmh ENE 6.5 mph10.5 kmh 29.70 in1005.8 mb 0.00 in0.0 mm 0.00 in0.0 mm 0.17 in4.3 mm
05:59 AM 28.9°F-1.7°C 27.7°F-2.4°C 95% 6.3 mph NE10.1 kmh NE 10.7 mph17.2 kmh 29.69 in1005.4 mb 0.00 in0.0 mm 0.00 in0.0 mm 0.17 in4.3 mm
06:04 AM 28.8°F-1.8°C 27.5°F-2.5°C 95% 4.3 mph NE6.9 kmh NE 9.8 mph15.8 kmh 29.69 in1005.4 mb 0.00 in0.0 mm 0.00 in0.0 mm 0.17 in4.3 mm
06:09 AM 28.6°F-1.9°C 27.3°F-2.6°C 95% 6.9 mph NE11.1 kmh NE 11.0 mph17.7 kmh 29.68 in1005.1 mb 0.00 in0.0 mm 0.00 in0.0 mm 0.17 in4.3 mm
06:14 AM 28.6°F-1.9°C 27.3°F-2.6°C 95% 4.7 mph NE7.6 kmh NE 10.3 mph16.6 kmh 29.68 in1005.1 mb 0.00 in0.0 mm 0.00 in0.0 mm 0.17 in4.3 mm
06:19 AM 28.6°F-1.9°C 27.1°F-2.7°C 94% 4.0 mph ENE6.4 kmh ENE 4.7 mph7.6 kmh 29.68 in1005.1 mb 0.00 in0.0 mm 0.00 in0.0 mm 0.17 in4.3 mm
06:24 AM 28.6°F-1.9°C 27.1°F-2.7°C 94% 4.3 mph ENE6.9 kmh ENE 7.2 mph11.6 kmh 29.70 in1005.8 mb 0.00 in0.0 mm 0.00 in0.0 mm 0.17 in4.3 mm
06:29 AM 28.4°F-2.0°C 26.6°F-3.0°C 93% 3.8 mph NE6.1 kmh NE 6.0 mph9.7 kmh 29.70 in1005.8 mb 0.00 in0.0 mm 0.00 in0.0 mm 0.17 in4.3 mm
06:34 AM 28.4°F-2.0°C 26.1°F-3.3°C 91% 3.8 mph NE6.1 kmh NE 9.4 mph15.1 kmh 29.70 in1005.8 mb 0.00 in0.0 mm 0.00 in0.0 mm 0.17 in4.3 mm
06:39 AM 28.2°F-2.1°C 25.7°F-3.5°C 90% 7.2 mph NE11.6 kmh NE 14.8 mph23.8 kmh 29.68 in1005.1 mb 0.00 in0.0 mm 0.00 in0.0 mm 0.17 in4.3 mm
06:44 AM 28.2°F-2.1°C 25.7°F-3.5°C 90% 5.4 mph NE8.7 kmh NE 13.6 mph21.9 kmh 29.69 in1005.4 mb 0.00 in0.0 mm 0.00 in0.0 mm 0.17 in4.3 mm
06:49 AM 28.0°F-2.2°C 25.5°F-3.6°C 90% 5.6 mph NE9.0 kmh NE 11.2 mph18.0 kmh 29.68 in1005.1 mb 0.00 in0.0 mm 0.00 in0.0 mm 0.17 in4.3 mm
06:54 AM 28.0°F-2.2°C 25.7°F-3.5°C 91% 4.0 mph NE6.4 kmh NE 9.4 mph15.1 kmh 29.69 in1005.4 mb 0.00 in0.0 mm 0.00 in0.0 mm 0.17 in4.3 mm
06:59 AM 28.2°F-2.1°C 25.7°F-3.5°C 90% 5.1 mph NE8.2 kmh NE 11.0 mph17.7 kmh 29.70 in1005.8 mb 0.00 in0.0 mm 0.00 in0.0 mm 0.17 in4.3 mm
07:04 AM 28.0°F-2.2°C 25.2°F-3.8°C 89% 6.5 mph NE10.5 kmh NE 11.0 mph17.7 kmh 29.70 in1005.8 mb 0.00 in0.0 mm 0.00 in0.0 mm 0.17 in4.3 mm
07:09 AM 28.0°F-2.2°C 25.2°F-3.8°C 89% 5.1 mph NE8.2 kmh NE 9.6 mph15.4 kmh 29.69 in1005.4 mb 0.00 in0.0 mm 0.00 in0.0 mm 0.17 in4.3 mm
07:14 AM 28.0°F-2.2°C 25.0°F-3.9°C 88% 7.4 mph NE11.9 kmh NE 14.1 mph22.7 kmh 29.69 in1005.4 mb 0.00 in0.0 mm 0.00 in0.0 mm 0.17 in4.3 mm
07:19 AM 27.9°F-2.3°C 24.3°F-4.3°C 86% 13.9 mph NE22.4 kmh NE 17.7 mph28.5 kmh 29.70 in1005.8 mb 0.00 in0.0 mm 0.00 in0.0 mm 0.17 in4.3 mm
07:24 AM 27.7°F-2.4°C 24.1°F-4.4°C 86% 7.8 mph NE12.6 kmh NE 13.4 mph21.6 kmh 29.71 in1006.1 mb 0.00 in0.0 mm 0.00 in0.0 mm 0.17 in4.3 mm
07:29 AM 27.7°F-2.4°C 24.1°F-4.4°C 86% 8.3 mph NE13.4 kmh NE 14.1 mph22.7 kmh 29.72 in1006.4 mb 0.00 in0.0 mm 0.00 in0.0 mm 0.17 in4.3 mm
07:34 AM 27.9°F-2.3°C 24.8°F-4.0°C 88% 6.7 mph NE10.8 kmh NE 14.8 mph23.8 kmh 29.72 in1006.4 mb 0.00 in0.0 mm 0.00 in0.0 mm 0.17 in4.3 mm
07:39 AM 27.5°F-2.5°C 23.9°F-4.5°C 86% 5.8 mph NE9.3 kmh NE 10.5 mph16.9 kmh 29.72 in1006.4 mb 0.00 in0.0 mm 0.00 in0.0 mm 0.17 in4.3 mm
07:44 AM 27.7°F-2.4°C 24.6°F-4.1°C 88% 6.5 mph NE10.5 kmh NE 12.3 mph19.8 kmh 29.72 in1006.4 mb 0.00 in0.0 mm 0.00 in0.0 mm 0.17 in4.3 mm
07:49 AM 27.7°F-2.4°C 24.1°F-4.4°C 86% 7.4 mph NE11.9 kmh NE 10.7 mph17.2 kmh 29.72 in1006.4 mb 0.00 in0.0 mm 0.00 in0.0 mm 0.17 in4.3 mm
07:54 AM 27.7°F-2.4°C 24.1°F-4.4°C 86% 9.4 mph NE15.1 kmh NE 13.4 mph21.6 kmh 29.72 in1006.4 mb 0.00 in0.0 mm 0.00 in0.0 mm 0.17 in4.3 mm
07:59 AM 27.7°F-2.4°C 23.7°F-4.6°C 85% 7.4 mph NE11.9 kmh NE 12.5 mph20.1 kmh 29.72 in1006.4 mb 0.00 in0.0 mm 0.00 in0.0 mm 0.17 in4.3 mm
08:04 AM 27.5°F-2.5°C 23.5°F-4.7°C 85% 7.4 mph NE11.9 kmh NE 11.2 mph18.0 kmh 29.73 in1006.8 mb 0.00 in0.0 mm 0.00 in0.0 mm 0.17 in4.3 mm
08:09 AM 27.5°F-2.5°C 23.9°F-4.5°C 86% 5.1 mph NE8.2 kmh NE 9.4 mph15.1 kmh 29.73 in1006.8 mb 0.00 in0.0 mm 0.00 in0.0 mm 0.17 in4.3 mm
08:14 AM 27.5°F-2.5°C 23.9°F-4.5°C 86% 6.5 mph NE10.5 kmh NE 12.1 mph19.5 kmh 29.73 in1006.8 mb 0.00 in0.0 mm 0.00 in0.0 mm 0.17 in4.3 mm
08:19 AM 27.7°F-2.4°C 23.7°F-4.6°C 85% 6.9 mph NE11.1 kmh NE 9.4 mph15.1 kmh 29.73 in1006.8 mb 0.00 in0.0 mm 0.00 in0.0 mm 0.17 in4.3 mm
08:24 AM 27.7°F-2.4°C 23.7°F-4.6°C 85% 7.6 mph NE12.2 kmh NE 11.4 mph18.3 kmh 29.73 in1006.8 mb 0.00 in0.0 mm 0.00 in0.0 mm 0.17 in4.3 mm
08:29 AM 27.7°F-2.4°C 23.7°F-4.6°C 85% 5.1 mph NE8.2 kmh NE 8.1 mph13.0 kmh 29.73 in1006.8 mb 0.00 in0.0 mm 0.00 in0.0 mm 0.17 in4.3 mm
08:34 AM 27.5°F-2.5°C 23.5°F-4.7°C 85% 6.7 mph NE10.8 kmh NE 10.1 mph16.3 kmh 29.73 in1006.8 mb 0.00 in0.0 mm 0.00 in0.0 mm 0.17 in4.3 mm
08:39 AM 27.5°F-2.5°C 23.5°F-4.7°C 85% 4.7 mph NE7.6 kmh NE 6.0 mph9.7 kmh 29.73 in1006.8 mb 0.00 in0.0 mm 0.00 in0.0 mm 0.17 in4.3 mm
08:44 AM 27.5°F-2.5°C 23.5°F-4.7°C 85% 4.7 mph NE7.6 kmh NE 5.6 mph9.0 kmh 29.73 in1006.8 mb 0.00 in0.0 mm 0.00 in0.0 mm 0.17 in4.3 mm
08:49 AM 27.5°F-2.5°C 23.4°F-4.8°C 84% 4.5 mph NW7.2 kmh NW 6.9 mph11.1 kmh 29.73 in1006.8 mb 0.00 in0.0 mm 0.00 in0.0 mm 0.17 in4.3 mm
08:54 AM 27.5°F-2.5°C 23.4°F-4.8°C 84% 4.5 mph N7.2 kmh N 6.3 mph10.1 kmh 29.72 in1006.4 mb 0.00 in0.0 mm 0.00 in0.0 mm 0.17 in4.3 mm
08:59 AM 27.5°F-2.5°C 23.5°F-4.7°C 85% 3.6 mph NE5.8 kmh NE 4.7 mph7.6 kmh 29.73 in1006.8 mb 0.00 in0.0 mm 0.00 in0.0 mm 0.17 in4.3 mm
09:04 AM 27.5°F-2.5°C 23.4°F-4.8°C 84% 3.4 mph N5.5 kmh N 4.5 mph7.2 kmh 29.73 in1006.8 mb 0.00 in0.0 mm 0.00 in0.0 mm 0.17 in4.3 mm
09:09 AM 27.5°F-2.5°C 23.4°F-4.8°C 84% 2.5 mph NE4.0 kmh NE 3.4 mph5.5 kmh 29.73 in1006.8 mb 0.00 in0.0 mm 0.00 in0.0 mm 0.17 in4.3 mm
09:14 AM 27.5°F-2.5°C 23.4°F-4.8°C 84% 3.1 mph NNE5.0 kmh NNE 4.5 mph7.2 kmh 29.74 in1007.1 mb 0.00 in0.0 mm 0.00 in0.0 mm 0.17 in4.3 mm
09:19 AM 27.7°F-2.4°C 23.5°F-4.7°C 84% 2.7 mph NNE4.3 kmh NNE 3.6 mph5.8 kmh 29.74 in1007.1 mb 0.00 in0.0 mm 0.00 in0.0 mm 0.17 in4.3 mm
09:24 AM 27.7°F-2.4°C 23.5°F-4.7°C 84% 2.5 mph NE4.0 kmh NE 3.6 mph5.8 kmh 29.74 in1007.1 mb 0.00 in0.0 mm 0.00 in0.0 mm 0.17 in4.3 mm
09:29 AM 27.7°F-2.4°C 23.5°F-4.7°C 84% 2.5 mph NNE4.0 kmh NNE 4.3 mph6.9 kmh 29.74 in1007.1 mb 0.00 in0.0 mm 0.00 in0.0 mm 0.17 in4.3 mm
09:34 AM 27.7°F-2.4°C 23.5°F-4.7°C 84% 2.0 mph NNE3.2 kmh NNE 4.0 mph6.4 kmh 29.75 in1007.5 mb 0.00 in0.0 mm 0.00 in0.0 mm 0.17 in4.3 mm
09:39 AM 27.7°F-2.4°C 23.5°F-4.7°C 84% 2.2 mph NNE3.5 kmh NNE 3.8 mph6.1 kmh 29.75 in1007.5 mb 0.00 in0.0 mm 0.00 in0.0 mm 0.17 in4.3 mm
09:44 AM 27.7°F-2.4°C 23.5°F-4.7°C 84% 3.1 mph NE5.0 kmh NE 4.5 mph7.2 kmh 29.75 in1007.5 mb 0.00 in0.0 mm 0.00 in0.0 mm 0.17 in4.3 mm
09:49 AM 27.5°F-2.5°C 23.4°F-4.8°C 84% 1.6 mph NE2.6 kmh NE 3.1 mph5.0 kmh 29.74 in1007.1 mb 0.00 in0.0 mm 0.00 in0.0 mm 0.17 in4.3 mm
09:54 AM 27.7°F-2.4°C 23.5°F-4.7°C 84% 2.7 mph NNE4.3 kmh NNE 3.6 mph5.8 kmh 29.74 in1007.1 mb 0.00 in0.0 mm 0.00 in0.0 mm 0.17 in4.3 mm
09:59 AM 27.5°F-2.5°C 23.4°F-4.8°C 84% 2.2 mph NE3.5 kmh NE 3.8 mph6.1 kmh 29.75 in1007.5 mb 0.00 in0.0 mm 0.00 in0.0 mm 0.17 in4.3 mm
10:04 AM 27.5°F-2.5°C 23.4°F-4.8°C 84% 2.5 mph NE4.0 kmh NE 4.0 mph6.4 kmh 29.75 in1007.5 mb 0.00 in0.0 mm 0.00 in0.0 mm 0.17 in4.3 mm
10:09 AM 27.7°F-2.4°C 23.5°F-4.7°C 84% 2.9 mph NE4.7 kmh NE 3.6 mph5.8 kmh 29.75 in1007.5 mb 0.00 in0.0 mm 0.00 in0.0 mm 0.17 in4.3 mm
10:14 AM 27.5°F-2.5°C 23.0°F-5.0°C 83% 2.5 mph N4.0 kmh N 3.6 mph5.8 kmh 29.75 in1007.5 mb 0.00 in0.0 mm 0.00 in0.0 mm 0.17 in4.3 mm
10:19 AM 27.5°F-2.5°C 23.0°F-5.0°C 83% 2.7 mph NE4.3 kmh NE 4.5 mph7.2 kmh 29.76 in1007.8 mb 0.00 in0.0 mm 0.00 in0.0 mm 0.17 in4.3 mm
10:24 AM 27.5°F-2.5°C 23.0°F-5.0°C 83% 1.6 mph NNE2.6 kmh NNE 2.7 mph4.3 kmh 29.75 in1007.5 mb 0.00 in0.0 mm 0.00 in0.0 mm 0.17 in4.3 mm
10:29 AM 27.5°F-2.5°C 23.0°F-5.0°C 83% 1.6 mph NNE2.6 kmh NNE 3.1 mph5.0 kmh 29.75 in1007.5 mb 0.00 in0.0 mm 0.00 in0.0 mm 0.17 in4.3 mm
10:34 AM 27.5°F-2.5°C 23.4°F-4.8°C 84% 2.9 mph N4.7 kmh N 5.4 mph8.7 kmh 29.76 in1007.8 mb 0.00 in0.0 mm 0.00 in0.0 mm 0.17 in4.3 mm
10:39 AM 27.7°F-2.4°C 23.5°F-4.7°C 84% 2.5 mph NE4.0 kmh NE 3.6 mph5.8 kmh 29.76 in1007.8 mb 0.00 in0.0 mm 0.00 in0.0 mm 0.17 in4.3 mm
10:44 AM 27.9°F-2.3°C 23.7°F-4.6°C 84% 2.7 mph NE4.3 kmh NE 3.8 mph6.1 kmh 29.77 in1008.1 mb 0.00 in0.0 mm 0.00 in0.0 mm 0.17 in4.3 mm
10:49 AM 27.7°F-2.4°C 23.2°F-4.9°C 83% 1.6 mph NE2.6 kmh NE 2.5 mph4.0 kmh 29.76 in1007.8 mb 0.00 in0.0 mm 0.00 in0.0 mm 0.17 in4.3 mm
10:54 AM 27.7°F-2.4°C 23.2°F-4.9°C 83% 2.5 mph NNE4.0 kmh NNE 4.0 mph6.4 kmh 29.76 in1007.8 mb 0.00 in0.0 mm 0.00 in0.0 mm 0.17 in4.3 mm
10:59 AM 27.7°F-2.4°C 23.2°F-4.9°C 83% 1.3 mph NE2.1 kmh NE 3.4 mph5.5 kmh 29.76 in1007.8 mb 0.00 in0.0 mm 0.00 in0.0 mm 0.17 in4.3 mm
11:04 AM 27.7°F-2.4°C 23.2°F-4.9°C 83% 1.6 mph NE2.6 kmh NE 3.4 mph5.5 kmh 29.76 in1007.8 mb 0.00 in0.0 mm 0.00 in0.0 mm 0.17 in4.3 mm
11:09 AM 27.5°F-2.5°C 23.0°F-5.0°C 83% 2.9 mph NE4.7 kmh NE 4.3 mph6.9 kmh 29.76 in1007.8 mb 0.00 in0.0 mm 0.00 in0.0 mm 0.17 in4.3 mm
11:14 AM 27.5°F-2.5°C 23.0°F-5.0°C 83% 3.4 mph N5.5 kmh N 6.3 mph10.1 kmh 29.77 in1008.1 mb 0.00 in0.0 mm 0.00 in0.0 mm 0.17 in4.3 mm
11:19 AM 27.5°F-2.5°C 23.0°F-5.0°C 83% 1.8 mph NE2.9 kmh NE 3.8 mph6.1 kmh 29.77 in1008.1 mb 0.00 in0.0 mm 0.00 in0.0 mm 0.17 in4.3 mm
11:24 AM 27.7°F-2.4°C 23.2°F-4.9°C 83% 1.8 mph NE2.9 kmh NE 4.3 mph6.9 kmh 29.77 in1008.1 mb 0.00 in0.0 mm 0.00 in0.0 mm 0.17 in4.3 mm
11:29 AM 27.5°F-2.5°C 23.0°F-5.0°C 83% 2.0 mph NNE3.2 kmh NNE 3.8 mph6.1 kmh 29.77 in1008.1 mb 0.00 in0.0 mm 0.00 in0.0 mm 0.17 in4.3 mm
11:34 AM 27.5°F-2.5°C 23.0°F-5.0°C 83% 1.8 mph NNE2.9 kmh NNE 3.8 mph6.1 kmh 29.78 in1008.5 mb 0.00 in0.0 mm 0.00 in0.0 mm 0.17 in4.3 mm
11:39 AM 27.5°F-2.5°C 23.0°F-5.0°C 83% 1.8 mph NE2.9 kmh NE 3.1 mph5.0 kmh 29.78 in1008.5 mb 0.00 in0.0 mm 0.00 in0.0 mm 0.17 in4.3 mm
11:44 AM 27.7°F-2.4°C 23.2°F-4.9°C 83% 2.0 mph NE3.2 kmh NE 3.4 mph5.5 kmh 29.78 in1008.5 mb 0.00 in0.0 mm 0.00 in0.0 mm 0.17 in4.3 mm
11:49 AM 27.7°F-2.4°C 22.6°F-5.2°C 81% 2.9 mph NE4.7 kmh NE 4.7 mph7.6 kmh 29.78 in1008.5 mb 0.00 in0.0 mm 0.00 in0.0 mm 0.17 in4.3 mm
11:54 AM 27.7°F-2.4°C 22.6°F-5.2°C 81% 2.7 mph N4.3 kmh N 4.5 mph7.2 kmh 29.78 in1008.5 mb 0.00 in0.0 mm 0.00 in0.0 mm 0.17 in4.3 mm
11:59 AM 27.7°F-2.4°C 22.6°F-5.2°C 81% 1.8 mph NE2.9 kmh NE 3.6 mph5.8 kmh 29.78 in1008.5 mb 0.00 in0.0 mm 0.00 in0.0 mm 0.17 in4.3 mm
12:04 PM 27.7°F-2.4°C 23.2°F-4.9°C 83% 2.2 mph NE3.5 kmh NE 3.6 mph5.8 kmh 29.79 in1008.8 mb 0.00 in0.0 mm 0.00 in0.0 mm 0.17 in4.3 mm
12:09 PM 27.9°F-2.3°C 23.4°F-4.8°C 83% 1.6 mph NE2.6 kmh NE 3.4 mph5.5 kmh 29.80 in1009.1 mb 0.00 in0.0 mm 0.00 in0.0 mm 0.17 in4.3 mm
12:14 PM 27.9°F-2.3°C 23.4°F-4.8°C 83% 1.8 mph NNE2.9 kmh NNE 3.6 mph5.8 kmh 29.80 in1009.1 mb 0.00 in0.0 mm 0.00 in0.0 mm 0.17 in4.3 mm
12:19 PM 27.9°F-2.3°C 22.8°F-5.1°C 81% 3.1 mph ENE5.0 kmh ENE 3.8 mph6.1 kmh 29.80 in1009.1 mb 0.00 in0.0 mm 0.00 in0.0 mm 0.17 in4.3 mm
12:24 PM 27.9°F-2.3°C 22.8°F-5.1°C 81% 2.9 mph NNE4.7 kmh NNE 4.9 mph7.9 kmh 29.80 in1009.1 mb 0.00 in0.0 mm 0.00 in0.0 mm 0.17 in4.3 mm
12:29 PM 27.7°F-2.4°C 22.3°F-5.4°C 80% 2.2 mph N3.5 kmh N 4.0 mph6.4 kmh 29.80 in1009.1 mb 0.00 in0.0 mm 0.00 in0.0 mm 0.17 in4.3 mm
12:34 PM 27.9°F-2.3°C 22.8°F-5.1°C 81% 2.0 mph NE3.2 kmh NE 3.1 mph5.0 kmh 29.80 in1009.1 mb 0.00 in0.0 mm 0.00 in0.0 mm 0.17 in4.3 mm
12:39 PM 27.9°F-2.3°C 22.8°F-5.1°C 81% 2.0 mph NNE3.2 kmh NNE 3.6 mph5.8 kmh 29.80 in1009.1 mb 0.00 in0.0 mm 0.00 in0.0 mm 0.17 in4.3 mm
12:44 PM 27.9°F-2.3°C 22.8°F-5.1°C 81% 3.6 mph N5.8 kmh N 4.9 mph7.9 kmh 29.81 in1009.5 mb 0.00 in0.0 mm 0.00 in0.0 mm 0.17 in4.3 mm
12:49 PM 27.7°F-2.4°C 22.3°F-5.4°C 80% 2.9 mph N4.7 kmh N 5.8 mph9.3 kmh 29.82 in1009.8 mb 0.00 in0.0 mm 0.00 in0.0 mm 0.17 in4.3 mm
12:54 PM 27.9°F-2.3°C 22.5°F-5.3°C 80% 2.5 mph NE4.0 kmh NE 3.8 mph6.1 kmh 29.82 in1009.8 mb 0.00 in0.0 mm 0.00 in0.0 mm 0.17 in4.3 mm
12:59 PM 27.9°F-2.3°C 22.5°F-5.3°C 80% 2.2 mph NE3.5 kmh NE 4.9 mph7.9 kmh 29.82 in1009.8 mb 0.00 in0.0 mm 0.00 in0.0 mm 0.17 in4.3 mm
01:04 PM 28.0°F-2.2°C 22.6°F-5.2°C 80% 2.9 mph NE4.7 kmh NE 4.0 mph6.4 kmh 29.82 in1009.8 mb 0.00 in0.0 mm 0.00 in0.0 mm 0.17 in4.3 mm
01:09 PM 27.9°F-2.3°C 22.5°F-5.3°C 80% 2.7 mph NE4.3 kmh NE 3.8 mph6.1 kmh 29.82 in1009.8 mb 0.00 in0.0 mm 0.00 in0.0 mm 0.17 in4.3 mm
01:14 PM 27.9°F-2.3°C 22.5°F-5.3°C 80% 3.1 mph NE5.0 kmh NE 4.3 mph6.9 kmh 29.81 in1009.5 mb 0.00 in0.0 mm 0.00 in0.0 mm 0.17 in4.3 mm
01:19 PM 28.0°F-2.2°C 22.6°F-5.2°C 80% 2.5 mph NE4.0 kmh NE 3.6 mph5.8 kmh 29.81 in1009.5 mb 0.00 in0.0 mm 0.00 in0.0 mm 0.17 in4.3 mm
01:24 PM 28.2°F-2.1°C 22.5°F-5.3°C 79% 2.0 mph NNE3.2 kmh NNE 3.6 mph5.8 kmh 29.80 in1009.1 mb 0.00 in0.0 mm 0.00 in0.0 mm 0.17 in4.3 mm
01:29 PM 28.6°F-1.9°C 22.8°F-5.1°C 79% 2.5 mph NE4.0 kmh NE 4.3 mph6.9 kmh 29.80 in1009.1 mb 0.00 in0.0 mm 0.00 in0.0 mm 0.17 in4.3 mm
01:34 PM 28.6°F-1.9°C 22.8°F-5.1°C 79% 3.1 mph NE5.0 kmh NE 4.9 mph7.9 kmh 29.80 in1009.1 mb 0.00 in0.0 mm 0.00 in0.0 mm 0.17 in4.3 mm
01:39 PM 28.8°F-1.8°C 22.8°F-5.1°C 78% 2.5 mph NE4.0 kmh NE 3.6 mph5.8 kmh 29.80 in1009.1 mb 0.00 in0.0 mm 0.00 in0.0 mm 0.17 in4.3 mm
01:44 PM 28.8°F-1.8°C 22.8°F-5.1°C 78% 2.9 mph NE4.7 kmh NE 3.6 mph5.8 kmh 29.81 in1009.5 mb 0.00 in0.0 mm 0.00 in0.0 mm 0.17 in4.3 mm
01:49 PM 28.6°F-1.9°C 22.6°F-5.2°C 78% 2.7 mph NE4.3 kmh NE 4.3 mph6.9 kmh 29.81 in1009.5 mb 0.00 in0.0 mm 0.00 in0.0 mm 0.17 in4.3 mm
01:54 PM 28.6°F-1.9°C 22.8°F-5.1°C 79% 2.5 mph NNE4.0 kmh NNE 4.7 mph7.6 kmh 29.81 in1009.5 mb 0.00 in0.0 mm 0.00 in0.0 mm 0.17 in4.3 mm
01:59 PM 28.4°F-2.0°C 22.5°F-5.3°C 78% 3.1 mph 5.0 kmh 6.0 mph9.7 kmh 29.81 in1009.5 mb 0.00 in0.0 mm 0.00 in0.0 mm 0.17 in4.3 mm
02:04 PM 28.4°F-2.0°C 22.6°F-5.2°C 79% 2.2 mph NE3.5 kmh NE 3.6 mph5.8 kmh 29.80 in1009.1 mb 0.00 in0.0 mm 0.00 in0.0 mm 0.17 in4.3 mm
02:09 PM 28.6°F-1.9°C 22.8°F-5.1°C 79% 2.0 mph NE3.2 kmh NE 4.3 mph6.9 kmh 29.80 in1009.1 mb 0.00 in0.0 mm 0.00 in0.0 mm 0.17 in4.3 mm
02:14 PM 28.6°F-1.9°C 22.6°F-5.2°C 78% 2.7 mph N4.3 kmh N 4.5 mph7.2 kmh 29.80 in1009.1 mb 0.00 in0.0 mm 0.00 in0.0 mm 0.17 in4.3 mm
02:19 PM 28.6°F-1.9°C 22.8°F-5.1°C 79% 2.5 mph NE4.0 kmh NE 3.6 mph5.8 kmh 29.80 in1009.1 mb 0.00 in0.0 mm 0.00 in0.0 mm 0.17 in4.3 mm
02:24 PM 28.6°F-1.9°C 23.2°F-4.9°C 80% 2.5 mph NE4.0 kmh NE 4.0 mph6.4 kmh 29.79 in1008.8 mb 0.00 in0.0 mm 0.00 in0.0 mm 0.17 in4.3 mm
02:29 PM 28.6°F-1.9°C 23.2°F-4.9°C 80% 2.5 mph NE4.0 kmh NE 3.8 mph6.1 kmh 29.79 in1008.8 mb 0.00 in0.0 mm 0.00 in0.0 mm 0.17 in4.3 mm
02:34 PM 28.6°F-1.9°C 22.8°F-5.1°C 79% 2.7 mph NE4.3 kmh NE 3.6 mph5.8 kmh 29.79 in1008.8 mb 0.00 in0.0 mm 0.00 in0.0 mm 0.17 in4.3 mm
02:39 PM 28.6°F-1.9°C 23.2°F-4.9°C 80% 2.0 mph NE3.2 kmh NE 3.8 mph6.1 kmh 29.80 in1009.1 mb 0.00 in0.0 mm 0.00 in0.0 mm 0.17 in4.3 mm
02:44 PM 28.4°F-2.0°C 23.0°F-5.0°C 80% 2.5 mph NE4.0 kmh NE 3.6 mph5.8 kmh 29.80 in1009.1 mb 0.00 in0.0 mm 0.00 in0.0 mm 0.17 in4.3 mm
02:49 PM 28.4°F-2.0°C 23.0°F-5.0°C 80% 2.7 mph NE4.3 kmh NE 3.6 mph5.8 kmh 29.79 in1008.8 mb 0.00 in0.0 mm 0.00 in0.0 mm 0.17 in4.3 mm
02:54 PM 28.4°F-2.0°C 23.4°F-4.8°C 81% 2.0 mph NE3.2 kmh NE 3.4 mph5.5 kmh 29.80 in1009.1 mb 0.00 in0.0 mm 0.00 in0.0 mm 0.17 in4.3 mm
02:59 PM 28.6°F-1.9°C 23.5°F-4.7°C 81% 2.0 mph NE3.2 kmh NE 3.1 mph5.0 kmh 29.80 in1009.1 mb 0.00 in0.0 mm 0.00 in0.0 mm 0.17 in4.3 mm
03:04 PM 28.6°F-1.9°C 23.5°F-4.7°C 81% 3.1 mph N5.0 kmh N 5.6 mph9.0 kmh 29.79 in1008.8 mb 0.00 in0.0 mm 0.00 in0.0 mm 0.17 in4.3 mm
03:09 PM 28.6°F-1.9°C 23.2°F-4.9°C 80% 2.5 mph NNE4.0 kmh NNE 4.7 mph7.6 kmh 29.80 in1009.1 mb 0.00 in0.0 mm 0.00 in0.0 mm 0.17 in4.3 mm
03:14 PM 28.6°F-1.9°C 23.2°F-4.9°C 80% 2.7 mph NE4.3 kmh NE 5.4 mph8.7 kmh 29.80 in1009.1 mb 0.00 in0.0 mm 0.00 in0.0 mm 0.17 in4.3 mm
03:19 PM 28.4°F-2.0°C 22.6°F-5.2°C 79% 2.5 mph NE4.0 kmh NE 3.8 mph6.1 kmh 29.79 in1008.8 mb 0.00 in0.0 mm 0.00 in0.0 mm 0.17 in4.3 mm
03:24 PM 28.6°F-1.9°C 22.8°F-5.1°C 79% 2.7 mph NNE4.3 kmh NNE 4.5 mph7.2 kmh 29.79 in1008.8 mb 0.00 in0.0 mm 0.00 in0.0 mm 0.17 in4.3 mm
03:29 PM 28.6°F-1.9°C 22.8°F-5.1°C 79% 2.0 mph NE3.2 kmh NE 4.3 mph6.9 kmh 29.79 in1008.8 mb 0.00 in0.0 mm 0.00 in0.0 mm 0.17 in4.3 mm
03:34 PM 28.4°F-2.0°C 22.6°F-5.2°C 79% 2.5 mph NE4.0 kmh NE 3.6 mph5.8 kmh 29.79 in1008.8 mb 0.00 in0.0 mm 0.00 in0.0 mm 0.17 in4.3 mm
03:39 PM 28.4°F-2.0°C 22.6°F-5.2°C 79% 2.7 mph N4.3 kmh N 4.9 mph7.9 kmh 29.79 in1008.8 mb 0.00 in0.0 mm 0.00 in0.0 mm 0.17 in4.3 mm
03:44 PM 28.6°F-1.9°C 23.2°F-4.9°C 80% 1.8 mph NE2.9 kmh NE 2.9 mph4.7 kmh 29.80 in1009.1 mb 0.00 in0.0 mm 0.00 in0.0 mm 0.17 in4.3 mm
03:49 PM 28.6°F-1.9°C 23.2°F-4.9°C 80% 2.2 mph NE3.5 kmh NE 3.4 mph5.5 kmh 29.80 in1009.1 mb 0.00 in0.0 mm 0.00 in0.0 mm 0.17 in4.3 mm
03:54 PM 28.6°F-1.9°C 23.2°F-4.9°C 80% 2.5 mph NE4.0 kmh NE 4.7 mph7.6 kmh 29.80 in1009.1 mb 0.00 in0.0 mm 0.00 in0.0 mm 0.17 in4.3 mm
03:59 PM 28.6°F-1.9°C 23.2°F-4.9°C 80% 2.7 mph NE4.3 kmh NE 5.6 mph9.0 kmh 29.80 in1009.1 mb 0.00 in0.0 mm 0.00 in0.0 mm 0.17 in4.3 mm
04:04 PM 28.6°F-1.9°C 23.5°F-4.7°C 81% 2.2 mph NE3.5 kmh NE 4.0 mph6.4 kmh 29.80 in1009.1 mb 0.00 in0.0 mm 0.00 in0.0 mm 0.17 in4.3 mm
04:09 PM 28.6°F-1.9°C 23.5°F-4.7°C 81% 2.0 mph NE3.2 kmh NE 2.9 mph4.7 kmh 29.80 in1009.1 mb 0.00 in0.0 mm 0.00 in0.0 mm 0.17 in4.3 mm
04:14 PM 28.6°F-1.9°C 23.5°F-4.7°C 81% 2.2 mph NE3.5 kmh NE 4.3 mph6.9 kmh 29.80 in1009.1 mb 0.00 in0.0 mm 0.00 in0.0 mm 0.17 in4.3 mm
04:19 PM 28.6°F-1.9°C 24.1°F-4.4°C 83% 2.5 mph NE4.0 kmh NE 3.6 mph5.8 kmh 29.80 in1009.1 mb 0.00 in0.0 mm 0.00 in0.0 mm 0.17 in4.3 mm
04:24 PM 28.6°F-1.9°C 24.1°F-4.4°C 83% 2.2 mph NE3.5 kmh NE 3.1 mph5.0 kmh 29.80 in1009.1 mb 0.00 in0.0 mm 0.00 in0.0 mm 0.17 in4.3 mm
04:29 PM 28.6°F-1.9°C 24.1°F-4.4°C 83% 2.2 mph NNE3.5 kmh NNE 3.6 mph5.8 kmh 29.80 in1009.1 mb 0.00 in0.0 mm 0.00 in0.0 mm 0.17 in4.3 mm
04:34 PM 28.6°F-1.9°C 24.1°F-4.4°C 83% 1.8 mph NNE2.9 kmh NNE 3.6 mph5.8 kmh 29.80 in1009.1 mb 0.00 in0.0 mm 0.00 in0.0 mm 0.17 in4.3 mm
04:39 PM 28.6°F-1.9°C 24.1°F-4.4°C 83% 2.5 mph NNE4.0 kmh NNE 4.7 mph7.6 kmh 29.80 in1009.1 mb 0.00 in0.0 mm 0.00 in0.0 mm 0.17 in4.3 mm
04:44 PM 28.6°F-1.9°C 24.1°F-4.4°C 83% 1.8 mph NE2.9 kmh NE 4.5 mph7.2 kmh 29.81 in1009.5 mb 0.00 in0.0 mm 0.00 in0.0 mm 0.17 in4.3 mm
04:49 PM 28.6°F-1.9°C 23.5°F-4.7°C 81% 2.2 mph NE3.5 kmh NE 3.4 mph5.5 kmh 29.81 in1009.5 mb 0.00 in0.0 mm 0.00 in0.0 mm 0.17 in4.3 mm
04:54 PM 28.6°F-1.9°C 23.5°F-4.7°C 81% 2.0 mph NNE3.2 kmh NNE 4.0 mph6.4 kmh 29.81 in1009.5 mb 0.00 in0.0 mm 0.00 in0.0 mm 0.17 in4.3 mm
04:59 PM 28.6°F-1.9°C 23.2°F-4.9°C 80% 1.8 mph NE2.9 kmh NE 3.1 mph5.0 kmh 29.81 in1009.5 mb 0.00 in0.0 mm 0.00 in0.0 mm 0.17 in4.3 mm
05:04 PM 28.6°F-1.9°C 23.2°F-4.9°C 80% 2.2 mph NE3.5 kmh NE 4.7 mph7.6 kmh 29.82 in1009.8 mb 0.00 in0.0 mm 0.00 in0.0 mm 0.17 in4.3 mm
05:09 PM 28.4°F-2.0°C 23.0°F-5.0°C 80% 2.5 mph NE4.0 kmh NE 4.7 mph7.6 kmh 29.82 in1009.8 mb 0.00 in0.0 mm 0.00 in0.0 mm 0.17 in4.3 mm
05:14 PM 28.4°F-2.0°C 23.0°F-5.0°C 80% 2.0 mph NE3.2 kmh NE 3.1 mph5.0 kmh 29.82 in1009.8 mb 0.00 in0.0 mm 0.00 in0.0 mm 0.17 in4.3 mm
05:19 PM 28.2°F-2.1°C 22.8°F-5.1°C 80% 1.6 mph NE2.6 kmh NE 2.9 mph4.7 kmh 29.82 in1009.8 mb 0.00 in0.0 mm 0.00 in0.0 mm 0.17 in4.3 mm
05:24 PM 28.4°F-2.0°C 23.0°F-5.0°C 80% 2.5 mph NE4.0 kmh NE 3.4 mph5.5 kmh 29.82 in1009.8 mb 0.00 in0.0 mm 0.00 in0.0 mm 0.17 in4.3 mm
05:29 PM 28.4°F-2.0°C 23.0°F-5.0°C 80% 2.5 mph NNE4.0 kmh NNE 4.5 mph7.2 kmh 29.82 in1009.8 mb 0.00 in0.0 mm 0.00 in0.0 mm 0.17 in4.3 mm
05:34 PM 28.4°F-2.0°C 22.6°F-5.2°C 79% 3.1 mph NE5.0 kmh NE 4.5 mph7.2 kmh 29.82 in1009.8 mb 0.00 in0.0 mm 0.00 in0.0 mm 0.17 in4.3 mm
05:39 PM 28.4°F-2.0°C 22.6°F-5.2°C 79% 2.2 mph NE3.5 kmh NE 4.9 mph7.9 kmh 29.83 in1010.2 mb 0.00 in0.0 mm 0.00 in0.0 mm 0.17 in4.3 mm
05:44 PM 28.2°F-2.1°C 22.5°F-5.3°C 79% 3.4 mph NE5.5 kmh NE 4.7 mph7.6 kmh 29.83 in1010.2 mb 0.00 in0.0 mm 0.00 in0.0 mm 0.17 in4.3 mm
05:49 PM 28.2°F-2.1°C 22.5°F-5.3°C 79% 3.1 mph NE5.0 kmh NE 5.4 mph8.7 kmh 29.83 in1010.2 mb 0.00 in0.0 mm 0.00 in0.0 mm 0.17 in4.3 mm
05:54 PM 27.9°F-2.3°C 21.9°F-5.6°C 78% 2.9 mph NE4.7 kmh NE 4.0 mph6.4 kmh 29.83 in1010.2 mb 0.00 in0.0 mm 0.00 in0.0 mm 0.17 in4.3 mm
05:59 PM 27.9°F-2.3°C 22.3°F-5.4°C 79% 3.4 mph NE5.5 kmh NE 5.4 mph8.7 kmh 29.83 in1010.2 mb 0.00 in0.0 mm 0.00 in0.0 mm 0.17 in4.3 mm
06:04 PM 27.9°F-2.3°C 22.5°F-5.3°C 80% 3.4 mph NE5.5 kmh NE 4.3 mph6.9 kmh 29.83 in1010.2 mb 0.00 in0.0 mm 0.00 in0.0 mm 0.17 in4.3 mm
06:09 PM 27.7°F-2.4°C 22.3°F-5.4°C 80% 2.5 mph NE4.0 kmh NE 3.4 mph5.5 kmh 29.83 in1010.2 mb 0.00 in0.0 mm 0.00 in0.0 mm 0.17 in4.3 mm
06:14 PM 27.7°F-2.4°C 22.3°F-5.4°C 80% 2.9 mph NE4.7 kmh NE 3.6 mph5.8 kmh 29.83 in1010.2 mb 0.00 in0.0 mm 0.00 in0.0 mm 0.17 in4.3 mm
06:19 PM 27.7°F-2.4°C 22.3°F-5.4°C 80% 2.7 mph ENE4.3 kmh ENE 3.6 mph5.8 kmh 29.83 in1010.2 mb 0.00 in0.0 mm 0.00 in0.0 mm 0.17 in4.3 mm
06:24 PM 27.3°F-2.6°C 21.7°F-5.7°C 79% 2.0 mph NE3.2 kmh NE 3.6 mph5.8 kmh 29.84 in1010.5 mb 0.00 in0.0 mm 0.00 in0.0 mm 0.17 in4.3 mm
06:29 PM 27.5°F-2.5°C 21.9°F-5.6°C 79% 3.4 mph ENE5.5 kmh ENE 3.6 mph5.8 kmh 29.84 in1010.5 mb 0.00 in0.0 mm 0.00 in0.0 mm 0.17 in4.3 mm
06:34 PM 27.5°F-2.5°C 22.1°F-5.5°C 80% 2.5 mph NE4.0 kmh NE 3.1 mph5.0 kmh 29.84 in1010.5 mb 0.00 in0.0 mm 0.00 in0.0 mm 0.17 in4.3 mm
06:39 PM 27.3°F-2.6°C 21.9°F-5.6°C 80% 2.7 mph NE4.3 kmh NE 3.6 mph5.8 kmh 29.84 in1010.5 mb 0.00 in0.0 mm 0.00 in0.0 mm 0.17 in4.3 mm
06:44 PM 27.5°F-2.5°C 22.1°F-5.5°C 80% 3.1 mph ENE5.0 kmh ENE 3.6 mph5.8 kmh 29.84 in1010.5 mb 0.00 in0.0 mm 0.00 in0.0 mm 0.17 in4.3 mm
06:49 PM 27.3°F-2.6°C 21.9°F-5.6°C 80% 2.7 mph NE4.3 kmh NE 3.4 mph5.5 kmh 29.84 in1010.5 mb 0.00 in0.0 mm 0.00 in0.0 mm 0.17 in4.3 mm
06:53 PM 27.5°F-2.5°C 22.1°F-5.5°C 80% 2.5 mph NE4.0 kmh NE 3.8 mph6.1 kmh 29.84 in1010.5 mb 0.00 in0.0 mm 0.00 in0.0 mm 0.17 in4.3 mm
06:58 PM 27.3°F-2.6°C 21.9°F-5.6°C 80% 3.6 mph ENE5.8 kmh ENE 4.5 mph7.2 kmh 29.84 in1010.5 mb 0.00 in0.0 mm 0.00 in0.0 mm 0.17 in4.3 mm
07:03 PM 27.3°F-2.6°C 21.9°F-5.6°C 80% 2.9 mph NE4.7 kmh NE 4.5 mph7.2 kmh 29.85 in1010.8 mb 0.00 in0.0 mm 0.00 in0.0 mm 0.17 in4.3 mm
07:08 PM 27.3°F-2.6°C 21.9°F-5.6°C 80% 3.4 mph ENE5.5 kmh ENE 4.0 mph6.4 kmh 29.85 in1010.8 mb 0.00 in0.0 mm 0.00 in0.0 mm 0.17 in4.3 mm
07:13 PM 27.1°F-2.7°C 21.7°F-5.7°C 80% 3.4 mph NE5.5 kmh NE 5.1 mph8.2 kmh 29.85 in1010.8 mb 0.00 in0.0 mm 0.00 in0.0 mm 0.17 in4.3 mm
07:18 PM 27.3°F-2.6°C 22.3°F-5.4°C 81% 2.2 mph NE3.5 kmh NE 4.0 mph6.4 kmh 29.85 in1010.8 mb 0.00 in0.0 mm 0.00 in0.0 mm 0.17 in4.3 mm
07:23 PM 27.1°F-2.7°C 21.7°F-5.7°C 80% 4.0 mph ENE6.4 kmh ENE 6.0 mph9.7 kmh 29.85 in1010.8 mb 0.00 in0.0 mm 0.00 in0.0 mm 0.17 in4.3 mm
07:28 PM 27.0°F-2.8°C 21.6°F-5.8°C 80% 4.9 mph ENE7.9 kmh ENE 6.3 mph10.1 kmh 29.86 in1011.2 mb 0.00 in0.0 mm 0.00 in0.0 mm 0.17 in4.3 mm
07:33 PM 26.8°F-2.9°C 21.2°F-6.0°C 79% 3.8 mph ENE6.1 kmh ENE 5.1 mph8.2 kmh 29.86 in1011.2 mb 0.00 in0.0 mm 0.00 in0.0 mm 0.17 in4.3 mm
07:38 PM 27.0°F-2.8°C 21.4°F-5.9°C 79% 3.6 mph ENE5.8 kmh ENE 4.7 mph7.6 kmh 29.86 in1011.2 mb 0.00 in0.0 mm 0.00 in0.0 mm 0.17 in4.3 mm
07:43 PM 26.8°F-2.9°C 21.2°F-6.0°C 79% 4.9 mph ENE7.9 kmh ENE 6.3 mph10.1 kmh 29.87 in1011.5 mb 0.00 in0.0 mm 0.00 in0.0 mm 0.17 in4.3 mm
07:48 PM 26.6°F-3.0°C 21.0°F-6.1°C 79% 4.0 mph ENE6.4 kmh ENE 5.6 mph9.0 kmh 29.87 in1011.5 mb 0.00 in0.0 mm 0.00 in0.0 mm 0.17 in4.3 mm
07:53 PM 26.4°F-3.1°C 20.8°F-6.2°C 79% 2.9 mph NE4.7 kmh NE 4.7 mph7.6 kmh 29.87 in1011.5 mb 0.00 in0.0 mm 0.00 in0.0 mm 0.17 in4.3 mm
07:58 PM 26.4°F-3.1°C 20.8°F-6.2°C 79% 3.4 mph NE5.5 kmh NE 5.1 mph8.2 kmh 29.87 in1011.5 mb 0.00 in0.0 mm 0.00 in0.0 mm 0.17 in4.3 mm
08:03 PM 26.4°F-3.1°C 20.8°F-6.2°C 79% 5.6 mph ENE9.0 kmh ENE 6.7 mph10.8 kmh 29.88 in1011.9 mb 0.00 in0.0 mm 0.00 in0.0 mm 0.17 in4.3 mm
08:08 PM 26.4°F-3.1°C 20.8°F-6.2°C 79% 2.7 mph NNE4.3 kmh NNE 6.7 mph10.8 kmh 29.88 in1011.9 mb 0.00 in0.0 mm 0.00 in0.0 mm 0.17 in4.3 mm
08:13 PM 26.2°F-3.2°C 20.7°F-6.3°C 79% 3.1 mph NE5.0 kmh NE 4.5 mph7.2 kmh 29.88 in1011.9 mb 0.00 in0.0 mm 0.00 in0.0 mm 0.17 in4.3 mm
08:18 PM 26.1°F-3.3°C 20.5°F-6.4°C 79% 2.7 mph NE4.3 kmh NE 4.7 mph7.6 kmh 29.88 in1011.9 mb 0.00 in0.0 mm 0.00 in0.0 mm 0.17 in4.3 mm
08:23 PM 26.1°F-3.3°C 20.5°F-6.4°C 79% 3.4 mph NE5.5 kmh NE 4.5 mph7.2 kmh 29.88 in1011.9 mb 0.00 in0.0 mm 0.00 in0.0 mm 0.17 in4.3 mm
08:28 PM 26.1°F-3.3°C 20.7°F-6.3°C 80% 3.8 mph NE6.1 kmh NE 6.7 mph10.8 kmh 29.89 in1012.2 mb 0.00 in0.0 mm 0.00 in0.0 mm 0.17 in4.3 mm
08:33 PM 26.2°F-3.2°C 20.8°F-6.2°C 80% 4.5 mph ENE7.2 kmh ENE 6.5 mph10.5 kmh 29.89 in1012.2 mb 0.00 in0.0 mm 0.00 in0.0 mm 0.17 in4.3 mm
08:38 PM 26.1°F-3.3°C 20.7°F-6.3°C 80% 2.0 mph NE3.2 kmh NE 3.4 mph5.5 kmh 29.89 in1012.2 mb 0.00 in0.0 mm 0.00 in0.0 mm 0.17 in4.3 mm
08:43 PM 26.2°F-3.2°C 20.8°F-6.2°C 80% 5.1 mph ENE8.2 kmh ENE 7.2 mph11.6 kmh 29.90 in1012.5 mb 0.00 in0.0 mm 0.00 in0.0 mm 0.17 in4.3 mm
08:48 PM 26.1°F-3.3°C 20.7°F-6.3°C 80% 6.3 mph E10.1 kmh E 9.2 mph14.8 kmh 29.90 in1012.5 mb 0.00 in0.0 mm 0.00 in0.0 mm 0.17 in4.3 mm
08:53 PM 25.9°F-3.4°C 20.3°F-6.5°C 79% 3.8 mph ENE6.1 kmh ENE 5.4 mph8.7 kmh 29.91 in1012.9 mb 0.00 in0.0 mm 0.00 in0.0 mm 0.17 in4.3 mm
08:58 PM 25.7°F-3.5°C 20.1°F-6.6°C 79% 5.6 mph NE9.0 kmh NE 8.1 mph13.0 kmh 29.91 in1012.9 mb 0.00 in0.0 mm 0.00 in0.0 mm 0.17 in4.3 mm
09:03 PM 25.5°F-3.6°C 19.9°F-6.7°C 79% 3.6 mph ENE5.8 kmh ENE 5.1 mph8.2 kmh 29.91 in1012.9 mb 0.00 in0.0 mm 0.00 in0.0 mm 0.17 in4.3 mm
09:08 PM 25.5°F-3.6°C 19.9°F-6.7°C 79% 3.4 mph ENE5.5 kmh ENE 5.6 mph9.0 kmh 29.91 in1012.9 mb 0.00 in0.0 mm 0.00 in0.0 mm 0.17 in4.3 mm
09:13 PM 25.5°F-3.6°C 19.6°F-6.9°C 78% 4.3 mph NE6.9 kmh NE 5.8 mph9.3 kmh 29.91 in1012.9 mb 0.00 in0.0 mm 0.00 in0.0 mm 0.17 in4.3 mm
09:18 PM 25.5°F-3.6°C 19.6°F-6.9°C 78% 3.6 mph ENE5.8 kmh ENE 6.3 mph10.1 kmh 29.91 in1012.9 mb 0.00 in0.0 mm 0.00 in0.0 mm 0.17 in4.3 mm
09:23 PM 25.5°F-3.6°C 19.9°F-6.7°C 79% 3.4 mph NE5.5 kmh NE 4.7 mph7.6 kmh 29.91 in1012.9 mb 0.00 in0.0 mm 0.00 in0.0 mm 0.17 in4.3 mm
09:28 PM 25.5°F-3.6°C 19.6°F-6.9°C 78% 3.8 mph ENE6.1 kmh ENE 5.4 mph8.7 kmh 29.91 in1012.9 mb 0.00 in0.0 mm 0.00 in0.0 mm 0.17 in4.3 mm
09:33 PM 25.3°F-3.7°C 19.4°F-7.0°C 78% 3.8 mph NE6.1 kmh NE 6.5 mph10.5 kmh 29.91 in1012.9 mb 0.00 in0.0 mm 0.00 in0.0 mm 0.17 in4.3 mm
09:38 PM 25.2°F-3.8°C 19.6°F-6.9°C 79% 4.7 mph ENE7.6 kmh ENE 6.3 mph10.1 kmh 29.91 in1012.9 mb 0.00 in0.0 mm 0.00 in0.0 mm 0.17 in4.3 mm
09:43 PM 25.3°F-3.7°C 19.8°F-6.8°C 79% 4.7 mph ENE7.6 kmh ENE 5.8 mph9.3 kmh 29.91 in1012.9 mb 0.00 in0.0 mm 0.00 in0.0 mm 0.17 in4.3 mm
09:48 PM 25.5°F-3.6°C 20.3°F-6.5°C 80% 2.9 mph NE4.7 kmh NE 4.3 mph6.9 kmh 29.91 in1012.9 mb 0.00 in0.0 mm 0.00 in0.0 mm 0.17 in4.3 mm
09:53 PM 25.3°F-3.7°C 20.1°F-6.6°C 80% 5.1 mph ENE8.2 kmh ENE 6.5 mph10.5 kmh 29.91 in1012.9 mb 0.00 in0.0 mm 0.00 in0.0 mm 0.17 in4.3 mm
09:58 PM 25.3°F-3.7°C 20.1°F-6.6°C 80% 5.6 mph ENE9.0 kmh ENE 6.7 mph10.8 kmh 29.91 in1012.9 mb 0.00 in0.0 mm 0.00 in0.0 mm 0.17 in4.3 mm
10:03 PM 25.2°F-3.8°C 19.9°F-6.7°C 80% 4.3 mph NE6.9 kmh NE 10.3 mph16.6 kmh 29.91 in1012.9 mb 0.00 in0.0 mm 0.00 in0.0 mm 0.17 in4.3 mm
10:08 PM 25.2°F-3.8°C 19.9°F-6.7°C 80% 4.5 mph ENE7.2 kmh ENE 5.4 mph8.7 kmh 29.91 in1012.9 mb 0.00 in0.0 mm 0.00 in0.0 mm 0.17 in4.3 mm
10:13 PM 25.2°F-3.8°C 20.1°F-6.6°C 81% 4.9 mph ENE7.9 kmh ENE 5.6 mph9.0 kmh 29.91 in1012.9 mb 0.00 in0.0 mm 0.00 in0.0 mm 0.17 in4.3 mm
10:18 PM 25.2°F-3.8°C 20.1°F-6.6°C 81% 5.4 mph ENE8.7 kmh ENE 6.5 mph10.5 kmh 29.91 in1012.9 mb 0.00 in0.0 mm 0.00 in0.0 mm 0.17 in4.3 mm
10:23 PM 25.3°F-3.7°C 20.3°F-6.5°C 81% 3.8 mph ENE6.1 kmh ENE 4.9 mph7.9 kmh 29.91 in1012.9 mb 0.00 in0.0 mm 0.00 in0.0 mm 0.17 in4.3 mm
10:28 PM 25.5°F-3.6°C 21.0°F-6.1°C 83% 2.9 mph NE4.7 kmh NE 4.5 mph7.2 kmh 29.91 in1012.9 mb 0.00 in0.0 mm 0.00 in0.0 mm 0.17 in4.3 mm
10:33 PM 25.5°F-3.6°C 21.0°F-6.1°C 83% 4.7 mph NE7.6 kmh NE 5.6 mph9.0 kmh 29.91 in1012.9 mb 0.00 in0.0 mm 0.00 in0.0 mm 0.17 in4.3 mm
10:38 PM 25.7°F-3.5°C 21.2°F-6.0°C 83% 4.5 mph NE7.2 kmh NE 6.9 mph11.1 kmh 29.91 in1012.9 mb 0.00 in0.0 mm 0.00 in0.0 mm 0.17 in4.3 mm
10:43 PM 25.5°F-3.6°C 21.0°F-6.1°C 83% 4.5 mph ENE7.2 kmh ENE 6.7 mph10.8 kmh 29.91 in1012.9 mb 0.00 in0.0 mm 0.00 in0.0 mm 0.17 in4.3 mm
10:48 PM 25.5°F-3.6°C 21.0°F-6.1°C 83% 4.3 mph E6.9 kmh E 5.6 mph9.0 kmh 29.91 in1012.9 mb 0.00 in0.0 mm 0.00 in0.0 mm 0.17 in4.3 mm
10:53 PM 25.5°F-3.6°C 21.0°F-6.1°C 83% 4.3 mph NE6.9 kmh NE 4.7 mph7.6 kmh 29.91 in1012.9 mb 0.00 in0.0 mm 0.00 in0.0 mm 0.17 in4.3 mm
10:58 PM 25.7°F-3.5°C 21.2°F-6.0°C 83% 4.0 mph NE6.4 kmh NE 5.6 mph9.0 kmh 29.91 in1012.9 mb 0.00 in0.0 mm 0.00 in0.0 mm 0.17 in4.3 mm
11:03 PM 25.5°F-3.6°C 21.0°F-6.1°C 83% 3.8 mph NE6.1 kmh NE 4.7 mph7.6 kmh 29.91 in1012.9 mb 0.00 in0.0 mm 0.00 in0.0 mm 0.17 in4.3 mm
11:08 PM 25.5°F-3.6°C 21.0°F-6.1°C 83% 4.5 mph NE7.2 kmh NE 5.6 mph9.0 kmh 29.91 in1012.9 mb 0.00 in0.0 mm 0.00 in0.0 mm 0.17 in4.3 mm
11:13 PM 25.5°F-3.6°C 21.4°F-5.9°C 84% 3.8 mph ENE6.1 kmh ENE 4.5 mph7.2 kmh 29.91 in1012.9 mb 0.00 in0.0 mm 0.00 in0.0 mm 0.17 in4.3 mm
11:18 PM 25.5°F-3.6°C 21.4°F-5.9°C 84% 3.8 mph ENE6.1 kmh ENE 4.9 mph7.9 kmh 29.91 in1012.9 mb 0.00 in0.0 mm 0.00 in0.0 mm 0.17 in4.3 mm
11:23 PM 25.3°F-3.7°C 21.2°F-6.0°C 84% 3.8 mph ENE6.1 kmh ENE 5.6 mph9.0 kmh 29.91 in1012.9 mb 0.00 in0.0 mm 0.00 in0.0 mm 0.17 in4.3 mm
11:28 PM 25.5°F-3.6°C 21.6°F-5.8°C 85% 4.3 mph NE6.9 kmh NE 4.9 mph7.9 kmh 29.91 in1012.9 mb 0.00 in0.0 mm 0.00 in0.0 mm 0.17 in4.3 mm
11:33 PM 25.5°F-3.6°C 21.4°F-5.9°C 84% 3.8 mph ENE6.1 kmh ENE 4.7 mph7.6 kmh 29.91 in1012.9 mb 0.00 in0.0 mm 0.00 in0.0 mm 0.17 in4.3 mm
11:38 PM 25.5°F-3.6°C 21.4°F-5.9°C 84% 3.6 mph NE5.8 kmh NE 4.0 mph6.4 kmh 29.90 in1012.5 mb 0.00 in0.0 mm 0.00 in0.0 mm 0.17 in4.3 mm
11:43 PM 25.5°F-3.6°C 21.4°F-5.9°C 84% 3.6 mph NE5.8 kmh NE 4.7 mph7.6 kmh 29.91 in1012.9 mb 0.00 in0.0 mm 0.00 in0.0 mm 0.17 in4.3 mm
11:48 PM 25.5°F-3.6°C 21.4°F-5.9°C 84% 3.1 mph NE5.0 kmh NE 4.5 mph7.2 kmh 29.91 in1012.9 mb 0.00 in0.0 mm 0.00 in0.0 mm 0.17 in4.3 mm
11:53 PM 25.5°F-3.6°C 21.6°F-5.8°C 85% 4.3 mph ENE6.9 kmh ENE 7.4 mph11.9 kmh 29.91 in1012.9 mb 0.00 in0.0 mm 0.00 in0.0 mm 0.17 in4.3 mm
11:58 PM 25.5°F-3.6°C 21.6°F-5.8°C 85% 4.5 mph ENE7.2 kmh ENE 5.8 mph9.3 kmh 29.91 in1012.9 mb 0.00 in0.0 mm 0.00 in0.0 mm 0.17 in4.3 mm